CheckWX is a tool to help pilots better visualize weather data.  It is not intended as a substitute for an official pre-flight weather briefing.

07:59:00 UTC

KLGB TAF
Long Beach / Daugherty Field / Airport
Long Beach, California, USA
KLGB 150720Z 1507/1606 VRB03KT P6SM BKN200 FM151000 VRB03KT 6SM BR BKN015 OVC025 FM151900 17008KT P6SM SCT025 BKN200 FM152300 29008KT P6SM BKN200 FM160300 VRB03KT P6SM SKC

Nov-15@
07:00 UTC

Nov-15 @ 07:00 UTC

Nov-15@
10:00 UTC

Nov-15 @ 10:00 UTC

KLGB 150720Z 1507/1606 VRB03KT P6SM BKN200
Wind
  • Variable at 3 KTS
Cloud Levels
  • Broken at 20,000' AGL

Nov-15@
10:00 UTC

Nov-15 @ 10:00 UTC

Nov-15@
19:00 UTC

Nov-15 @ 19:00 UTC

FM151000 VRB03KT 6SM BR BKN015 OVC025

From

From Standard forecast or significant change

Wind
  • Variable at 3 KTS
Conditions
Mist
Cloud Levels
  • Broken at 1,500' AGL
  • Overcast at 2,500' AGL

Nov-15@
19:00 UTC

Nov-15 @ 19:00 UTC

Nov-15@
23:00 UTC

Nov-15 @ 23:00 UTC

FM151900 17008KT P6SM SCT025 BKN200

From

From Standard forecast or significant change

Wind
  • 170° at 8 KTS
Cloud Levels
  • Scattered at 2,500' AGL
  • Broken at 20,000' AGL

Nov-15@
23:00 UTC

Nov-15 @ 23:00 UTC

Nov-16@
03:00 UTC

Nov-16 @ 03:00 UTC

FM152300 29008KT P6SM BKN200

From

From Standard forecast or significant change

Wind
  • 290° at 8 KTS
Cloud Levels
  • Broken at 20,000' AGL

Nov-16@
03:00 UTC

Nov-16 @ 03:00 UTC

Nov-16@
06:00 UTC

Nov-16 @ 06:00 UTC

FM160300 VRB03KT P6SM SKC

From

From Standard forecast or significant change

Wind
  • Variable at 3 KTS
Cloud Levels
  • Clear skies